Time;durP1;ratioP1;P1;durP2;ratioP2;P2;SDS_P1;SDS_P2;PMS_P1;PMS_P2;Temp;Humidity;BMP_temperature;BMP_pressure;BME280_temperature;BME280_humidity;BME280_pressure;Samples;Min_cycle;Max_cycle;Signal;HPM_P1;HPM_P2
2023/06/27 00:00:29;;;;;;;11.23;6.03;;;;;;;;;;6243983;23;20169;-88
2023/06/27 00:03:36;;;;;;;12.85;5.53;;;;;;;;;;6243811;22;20173;-88
2023/06/27 00:06:42;;;;;;;13.20;6.55;;;;;;;;;;6243922;22;20254;-90
2023/06/27 00:09:47;;;;;;;15.60;5.97;;;;;;;;;;6243972;22;20213;-91
2023/06/27 00:12:53;;;;;;;13.02;6.50;;;;;;;;;;6242463;23;20194;-92
2023/06/27 00:16:00;;;;;;;8.93;5.68;;;;;;;;;;6243748;22;20174;-92
2023/06/27 00:19:08;;;;;;;11.93;5.72;;;;;;;;;;6242856;22;20171;-92
2023/06/27 00:22:14;;;;;;;13.52;6.30;;;;;;;;;;6245383;22;20163;-90
2023/06/27 00:25:19;;;;;;;13.73;6.38;;;;;;;;;;6246217;22;20210;-89
2023/06/27 00:28:24;;;;;;;13.30;6.15;;;;;;;;;;6244580;23;20175;-90
2023/06/27 00:31:29;;;;;;;12.05;6.18;;;;;;;;;;6243663;23;20194;-92
2023/06/27 00:34:36;;;;;;;15.00;6.18;;;;;;;;;;6260971;22;20170;-90
2023/06/27 00:37:41;;;;;;;18.38;6.38;;;;;;;;;;6242766;23;20229;-89
2023/06/27 00:40:47;;;;;;;14.27;6.28;;;;;;;;;;6241483;22;20170;-89
2023/06/27 00:43:52;;;;;;;12.63;6.35;;;;;;;;;;6244373;23;20281;-90
2023/06/27 00:46:57;;;;;;;11.88;5.95;;;;;;;;;;6241105;23;20166;-90
2023/06/27 00:50:04;;;;;;;8.02;5.68;;;;;;;;;;6242636;23;20205;-91
2023/06/27 00:53:10;;;;;;;10.10;5.63;;;;;;;;;;6242270;22;20178;-91
2023/06/27 00:56:21;;;;;;;10.02;5.85;;;;;;;;;;6242434;23;20230;-89
2023/06/27 00:59:26;;;;;;;12.82;5.60;;;;;;;;;;6242333;23;20167;-90
2023/06/27 01:02:31;;;;;;;10.07;5.90;;;;;;;;;;6243139;23;20173;-90
2023/06/27 01:05:38;;;;;;;17.92;6.47;;;;;;;;;;6244314;23;20179;-88
2023/06/27 01:08:43;;;;;;;11.60;6.13;;;;;;;;;;6245795;22;20193;-89
2023/06/27 01:11:51;;;;;;;13.30;5.32;;;;;;;;;;6243649;23;20198;-89
2023/06/27 01:14:58;;;;;;;9.25;5.30;;;;;;;;;;6243987;23;20203;-89
2023/06/27 01:18:04;;;;;;;15.52;5.65;;;;;;;;;;6242277;23;20211;-90
2023/06/27 01:21:11;;;;;;;11.40;5.45;;;;;;;;;;6241604;23;20166;-90
2023/06/27 01:24:19;;;;;;;13.07;5.63;;;;;;;;;;6244211;23;20585;-90
2023/06/27 01:27:24;;;;;;;10.63;5.28;;;;;;;;;;6244750;22;20217;-90
2023/06/27 01:30:33;;;;;;;12.00;5.05;;;;;;;;;;6243281;23;20182;-92
2023/06/27 01:33:45;;;;;;;10.95;4.88;;;;;;;;;;6242896;23;20170;-88
2023/06/27 01:36:53;;;;;;;14.13;5.18;;;;;;;;;;6244091;22;20209;-89
2023/06/27 01:40:07;;;;;;;9.40;5.07;;;;;;;;;;6241856;23;20783;-91
2023/06/27 01:43:14;;;;;;;10.85;4.63;;;;;;;;;;6241706;23;20206;-90
2023/06/27 01:46:19;;;;;;;14.88;4.50;;;;;;;;;;6240349;23;20162;-93
2023/06/27 01:49:24;;;;;;;10.50;4.97;;;;;;;;;;6239141;22;20232;-88
2023/06/27 01:52:29;;;;;;;10.85;4.40;;;;;;;;;;6240720;22;20182;-88
2023/06/27 01:55:37;;;;;;;11.45;4.97;;;;;;;;;;6241676;23;20199;-90
2023/06/27 01:58:47;;;;;;;7.20;4.40;;;;;;;;;;6241614;23;20492;-92
2023/06/27 02:01:52;;;;;;;8.32;4.25;;;;;;;;;;6240201;23;20167;-89
2023/06/27 02:04:57;;;;;;;9.88;4.57;;;;;;;;;;6240963;22;20170;-88
2023/06/27 02:08:02;;;;;;;8.05;4.15;;;;;;;;;;6239792;23;20182;-92
2023/06/27 02:11:10;;;;;;;9.43;4.22;;;;;;;;;;6241511;23;20253;-89
2023/06/27 02:14:20;;;;;;;8.30;3.47;;;;;;;;;;6242439;23;20166;-90
2023/06/27 02:17:25;;;;;;;9.98;4.13;;;;;;;;;;6241363;23;20615;-91
2023/06/27 02:20:30;;;;;;;11.75;4.00;;;;;;;;;;6241371;22;20633;-88
2023/06/27 02:23:35;;;;;;;7.20;3.58;;;;;;;;;;6240853;22;20166;-90
2023/06/27 02:26:42;;;;;;;8.65;3.45;;;;;;;;;;6241631;23;20219;-89
2023/06/27 02:29:48;;;;;;;11.73;3.55;;;;;;;;;;6241793;23;20167;-89
2023/06/27 02:32:53;;;;;;;10.05;3.58;;;;;;;;;;6241276;23;20641;-89
2023/06/27 02:35:58;;;;;;;7.45;3.15;;;;;;;;;;6239675;23;20150;-92
2023/06/27 02:39:04;;;;;;;6.60;3.40;;;;;;;;;;6242106;23;20146;-92
2023/06/27 02:42:13;;;;;;;8.05;3.47;;;;;;;;;;6240955;23;20282;-89
2023/06/27 02:45:19;;;;;;;13.95;3.58;;;;;;;;;;6243857;23;20166;-92
2023/06/27 02:48:24;;;;;;;6.13;3.00;;;;;;;;;;6241564;23;20212;-92
2023/06/27 02:51:29;;;;;;;12.93;3.42;;;;;;;;;;6242247;23;20227;-89
2023/06/27 02:54:34;;;;;;;6.93;2.92;;;;;;;;;;6240020;23;20233;-89
2023/06/27 02:57:45;;;;;;;8.30;3.15;;;;;;;;;;6240312;23;20166;-88
2023/06/27 03:00:53;;;;;;;10.98;3.20;;;;;;;;;;6240648;22;20215;-89
2023/06/27 03:03:59;;;;;;;7.90;2.90;;;;;;;;;;6241340;23;20193;-90
2023/06/27 03:07:05;;;;;;;10.30;3.10;;;;;;;;;;6242253;22;20171;-93
2023/06/27 03:10:11;;;;;;;9.63;3.22;;;;;;;;;;6240144;23;20170;-91
2023/06/27 03:13:16;;;;;;;6.65;2.92;;;;;;;;;;6240418;23;20194;-88
2023/06/27 03:16:22;;;;;;;6.95;3.55;;;;;;;;;;6240577;23;20166;-88
2023/06/27 03:19:53;;;;;;;7.38;3.20;;;;;;;;;;6241294;22;20378;-89
2023/06/27 03:22:59;;;;;;;9.05;3.15;;;;;;;;;;6242717;23;20170;-89
2023/06/27 03:26:04;;;;;;;9.07;2.70;;;;;;;;;;6242580;23;20174;-90
2023/06/27 03:29:10;;;;;;;7.75;3.00;;;;;;;;;;6241600;23;20165;-87
2023/06/27 03:32:16;;;;;;;7.10;2.95;;;;;;;;;;6241210;22;20198;-88
2023/06/27 03:35:21;;;;;;;9.73;2.90;;;;;;;;;;6243322;22;20250;-90
2023/06/27 03:38:27;;;;;;;6.78;3.00;;;;;;;;;;6240584;22;20162;-89
2023/06/27 03:42:01;;;;;;;6.50;3.13;;;;;;;;;;6242105;22;20166;-88
2023/06/27 03:45:07;;;;;;;7.63;2.80;;;;;;;;;;6239439;23;20194;-89
2023/06/27 03:48:14;;;;;;;6.47;2.53;;;;;;;;;;6239365;23;20225;-90
2023/06/27 03:51:19;;;;;;;10.82;2.75;;;;;;;;;;6241184;23;20174;-90
2023/06/27 03:54:24;;;;;;;10.98;3.20;;;;;;;;;;6241928;22;20209;-91
2023/06/27 03:57:30;;;;;;;6.03;3.15;;;;;;;;;;6241542;22;20182;-89
2023/06/27 04:00:36;;;;;;;12.07;3.22;;;;;;;;;;6241935;22;20190;-88
2023/06/27 04:03:43;;;;;;;5.88;2.65;;;;;;;;;;6241917;23;20175;-91
2023/06/27 04:06:48;;;;;;;6.50;3.13;;;;;;;;;;6242049;23;20333;-88
2023/06/27 04:09:53;;;;;;;12.90;3.10;;;;;;;;;;6241469;23;20163;-90
2023/06/27 04:12:58;;;;;;;8.25;3.08;;;;;;;;;;6240396;23;20246;-90
2023/06/27 04:16:03;;;;;;;7.93;3.00;;;;;;;;;;6238962;22;20167;-88
2023/06/27 04:19:10;;;;;;;6.15;2.83;;;;;;;;;;6240100;22;20170;-90
2023/06/27 04:22:15;;;;;;;5.03;2.53;;;;;;;;;;6239091;23;20237;-89
2023/06/27 04:25:20;;;;;;;6.50;3.05;;;;;;;;;;6241588;23;20182;-90
2023/06/27 04:28:25;;;;;;;12.10;3.05;;;;;;;;;;6241006;22;20166;-91
2023/06/27 04:31:32;;;;;;;13.23;3.05;;;;;;;;;;6241995;22;20271;-88
2023/06/27 04:34:41;;;;;;;10.57;3.00;;;;;;;;;;6242790;22;20225;-90
2023/06/27 04:37:47;;;;;;;8.68;3.17;;;;;;;;;;6242243;23;20162;-89
2023/06/27 04:40:52;;;;;;;4.97;2.60;;;;;;;;;;6241510;23;20167;-88
2023/06/27 04:43:58;;;;;;;8.75;2.75;;;;;;;;;;6242685;23;20163;-88
2023/06/27 04:47:05;;;;;;;10.90;3.55;;;;;;;;;;6242023;22;20253;-86
2023/06/27 04:50:18;;;;;;;9.75;3.40;;;;;;;;;;6243353;23;20167;-90
2023/06/27 04:53:25;;;;;;;7.80;3.10;;;;;;;;;;6242271;23;20198;-91
2023/06/27 04:56:31;;;;;;;9.90;3.58;;;;;;;;;;6241023;23;20163;-89
2023/06/27 04:59:36;;;;;;;10.48;3.20;;;;;;;;;;6244698;23;20165;-90
2023/06/27 05:02:42;;;;;;;9.15;3.00;;;;;;;;;;6242191;23;20253;-90
2023/06/27 05:05:50;;;;;;;7.15;3.20;;;;;;;;;;6243644;23;20166;-89
2023/06/27 05:08:55;;;;;;;10.82;3.53;;;;;;;;;;6242186;23;20167;-92
2023/06/27 05:12:00;;;;;;;9.57;3.10;;;;;;;;;;6240730;23;20167;-91
2023/06/27 05:15:06;;;;;;;9.32;3.03;;;;;;;;;;6241547;23;20195;-90
2023/06/27 05:18:29;;;;;;;8.63;2.70;;;;;;;;;;6243537;23;20155;-88
2023/06/27 05:21:38;;;;;;;15.35;3.60;;;;;;;;;;6244579;23;20166;-88
2023/06/27 05:24:43;;;;;;;9.88;2.90;;;;;;;;;;6244106;23;20610;-87
2023/06/27 05:27:49;;;;;;;11.85;3.47;;;;;;;;;;6244217;22;20249;-89
2023/06/27 05:30:55;;;;;;;9.75;3.10;;;;;;;;;;6248292;22;20158;-89
2023/06/27 05:34:01;;;;;;;6.65;3.15;;;;;;;;;;6241520;22;20210;-90
2023/06/27 05:37:10;;;;;;;5.60;3.10;;;;;;;;;;6245665;23;20181;-90
2023/06/27 05:40:16;;;;;;;8.52;2.90;;;;;;;;;;6229555;23;20162;-90
2023/06/27 05:43:22;;;;;;;8.60;2.95;;;;;;;;;;6244787;23;20286;-90
2023/06/27 05:46:38;;;;;;;12.68;3.60;;;;;;;;;;6244472;23;20178;-91
2023/06/27 05:49:44;;;;;;;6.30;2.83;;;;;;;;;;6242904;23;20166;-92
2023/06/27 05:52:53;;;;;;;11.75;3.13;;;;;;;;;;6245752;22;20233;-89
2023/06/27 05:55:58;;;;;;;9.40;3.10;;;;;;;;;;6242856;23;20190;-91
2023/06/27 05:59:05;;;;;;;8.57;3.00;;;;;;;;;;6243677;23;20209;-91
2023/06/27 06:02:11;;;;;;;7.55;2.58;;;;;;;;;;6244775;22;20189;-90
2023/06/27 06:05:17;;;;;;;7.32;2.78;;;;;;;;;;6244384;23;20499;-89
2023/06/27 06:08:24;;;;;;;10.82;2.90;;;;;;;;;;6245274;22;20169;-89
2023/06/27 06:11:29;;;;;;;6.63;2.55;;;;;;;;;;6243460;23;20203;-89
2023/06/27 06:14:35;;;;;;;8.27;3.05;;;;;;;;;;6241876;23;20270;-89
2023/06/27 06:17:41;;;;;;;9.38;2.95;;;;;;;;;;6242035;22;20166;-92
2023/06/27 06:20:46;;;;;;;8.45;2.40;;;;;;;;;;6243357;22;20174;-90
2023/06/27 06:23:52;;;;;;;6.95;2.40;;;;;;;;;;6244421;22;20178;-91
2023/06/27 06:26:58;;;;;;;12.20;3.08;;;;;;;;;;6241866;23;20182;-91
2023/06/27 06:30:03;;;;;;;8.00;2.85;;;;;;;;;;6240779;22;20162;-90
2023/06/27 06:33:08;;;;;;;4.85;2.42;;;;;;;;;;6239741;23;20194;-91
2023/06/27 06:36:14;;;;;;;6.95;3.05;;;;;;;;;;6240243;22;20170;-91
2023/06/27 06:39:22;;;;;;;9.02;2.70;;;;;;;;;;6239094;23;20626;-92
2023/06/27 06:42:27;;;;;;;9.18;2.58;;;;;;;;;;6241155;22;20190;-90
2023/06/27 06:45:31;;;;;;;9.88;3.00;;;;;;;;;;6239106;23;20178;-90
2023/06/27 06:48:37;;;;;;;6.53;2.50;;;;;;;;;;6240756;23;20194;-91
2023/06/27 06:51:41;;;;;;;7.43;2.88;;;;;;;;;;6242943;22;20162;-91
2023/06/27 06:54:48;;;;;;;5.05;2.25;;;;;;;;;;6241371;22;20236;-91
2023/06/27 06:58:11;;;;;;;8.45;2.35;;;;;;;;;;6245096;23;20182;-92
2023/06/27 07:01:17;;;;;;;7.20;2.58;;;;;;;;;;6241846;23;20158;-91
2023/06/27 07:04:23;;;;;;;9.00;2.35;;;;;;;;;;6241517;23;20240;-90
2023/06/27 07:07:29;;;;;;;9.55;2.30;;;;;;;;;;6241863;23;20241;-91
2023/06/27 07:10:36;;;;;;;6.25;2.40;;;;;;;;;;6241798;23;20170;-89
2023/06/27 07:13:41;;;;;;;5.90;2.20;;;;;;;;;;6242091;23;20221;-90
2023/06/27 07:16:46;;;;;;;4.53;2.08;;;;;;;;;;6243751;22;20194;-92
2023/06/27 07:19:52;;;;;;;10.60;2.33;;;;;;;;;;6240710;22;20213;-91
2023/06/27 07:22:58;;;;;;;7.30;2.50;;;;;;;;;;6243524;23;20187;-89
2023/06/27 07:26:04;;;;;;;10.05;2.15;;;;;;;;;;6243209;23;20166;-89
2023/06/27 07:29:10;;;;;;;6.03;2.40;;;;;;;;;;6242793;22;20171;-89
2023/06/27 07:32:16;;;;;;;7.18;2.20;;;;;;;;;;6242662;22;20206;-88
2023/06/27 07:35:21;;;;;;;4.43;2.20;;;;;;;;;;6241916;23;20167;-91
2023/06/27 07:38:28;;;;;;;7.70;2.30;;;;;;;;;;6244225;23;20169;-90
2023/06/27 07:41:38;;;;;;;5.50;1.98;;;;;;;;;;6241854;23;20163;-91
2023/06/27 07:44:43;;;;;;;8.07;2.08;;;;;;;;;;6243270;23;20215;-90
2023/06/27 07:47:49;;;;;;;5.65;2.05;;;;;;;;;;6241544;23;20194;-90
2023/06/27 07:50:55;;;;;;;7.53;2.15;;;;;;;;;;6240778;23;20309;-91
2023/06/27 07:54:02;;;;;;;5.28;1.95;;;;;;;;;;6241548;23;20193;-92
2023/06/27 07:57:12;;;;;;;6.00;2.53;;;;;;;;;;6240252;23;20492;-90
2023/06/27 08:00:18;;;;;;;7.53;1.80;;;;;;;;;;6242596;23;20162;-91
2023/06/27 08:03:24;;;;;;;5.70;2.00;;;;;;;;;;6244303;23;20270;-90
2023/06/27 08:06:29;;;;;;;11.88;2.97;;;;;;;;;;6244579;23;20215;-89
2023/06/27 08:09:34;;;;;;;7.45;2.00;;;;;;;;;;6241502;22;20857;-92
2023/06/27 08:12:41;;;;;;;6.10;2.08;;;;;;;;;;6243096;22;20680;-91
2023/06/27 08:15:46;;;;;;;5.22;1.67;;;;;;;;;;6246761;22;20158;-90
2023/06/27 08:18:57;;;;;;;8.32;2.00;;;;;;;;;;6242858;22;20169;-91
2023/06/27 08:22:02;;;;;;;6.57;1.75;;;;;;;;;;6242680;23;20166;-90
2023/06/27 08:25:08;;;;;;;8.02;1.85;;;;;;;;;;6243310;23;20229;-90
2023/06/27 08:28:15;;;;;;;4.85;2.10;;;;;;;;;;6244013;23;20166;-89
2023/06/27 08:31:20;;;;;;;4.63;1.90;;;;;;;;;;6242601;22;20203;-90
2023/06/27 08:34:28;;;;;;;5.43;1.75;;;;;;;;;;6243465;23;20237;-90
2023/06/27 08:37:33;;;;;;;3.70;1.80;;;;;;;;;;6244297;23;20240;-91
2023/06/27 08:40:50;;;;;;;4.97;1.63;;;;;;;;;;6242129;23;20166;-87
2023/06/27 08:43:57;;;;;;;4.53;1.48;;;;;;;;;;6241819;22;20609;-90
2023/06/27 08:47:03;;;;;;;5.53;1.70;;;;;;;;;;6244054;22;20218;-90
2023/06/27 08:50:09;;;;;;;3.92;1.67;;;;;;;;;;6244509;22;20217;-91
2023/06/27 08:53:17;;;;;;;3.45;1.50;;;;;;;;;;6243031;23;20179;-92
2023/06/27 08:56:59;;;;;;;5.88;1.83;;;;;;;;;;6244654;22;20165;-89
2023/06/27 09:00:12;;;;;;;6.35;2.00;;;;;;;;;;6243236;22;20162;-92
2023/06/27 09:03:18;;;;;;;7.35;1.80;;;;;;;;;;6242469;22;20171;-94
2023/06/27 09:06:23;;;;;;;4.68;2.00;;;;;;;;;;6245816;23;20154;-90
2023/06/27 09:09:30;;;;;;;6.65;1.90;;;;;;;;;;6241823;23;20171;-90
2023/06/27 09:12:35;;;;;;;5.95;1.90;;;;;;;;;;6243987;22;20162;-90
2023/06/27 09:15:42;;;;;;;5.30;1.60;;;;;;;;;;6244681;22;20274;-91
2023/06/27 09:18:50;;;;;;;5.63;2.00;;;;;;;;;;6244641;22;20166;-89
2023/06/27 09:21:55;;;;;;;3.17;1.40;;;;;;;;;;6242819;23;20161;-90
2023/06/27 09:25:11;;;;;;;7.32;1.95;;;;;;;;;;6243360;22;20170;-90
2023/06/27 09:28:17;;;;;;;2.88;1.42;;;;;;;;;;6241888;22;20163;-91
2023/06/27 09:31:23;;;;;;;8.93;1.70;;;;;;;;;;6243198;23;20211;-89
2023/06/27 09:34:29;;;;;;;10.95;1.77;;;;;;;;;;6241601;23;20321;-90
2023/06/27 09:37:34;;;;;;;13.48;1.90;;;;;;;;;;6242602;23;20236;-91
2023/06/27 09:40:43;;;;;;;5.93;1.50;;;;;;;;;;6243532;22;20159;-90
2023/06/27 09:43:54;;;;;;;3.80;1.70;;;;;;;;;;6240913;22;20629;-90
2023/06/27 09:47:01;;;;;;;2.83;1.50;;;;;;;;;;6242047;23;20163;-89
2023/06/27 09:50:08;;;;;;;5.80;1.50;;;;;;;;;;6240677;23;20162;-91
2023/06/27 09:53:13;;;;;;;4.25;1.60;;;;;;;;;;6240714;23;20162;-90
2023/06/27 09:56:29;;;;;;;7.20;1.83;;;;;;;;;;6243262;23;20650;-90
2023/06/27 10:02:55;;;;;;;9.15;1.80;;;;;;;;;;6242507;23;20170;-90
2023/06/27 10:06:01;;;;;;;14.85;2.05;;;;;;;;;;6241720;23;20170;-94
2023/06/27 10:09:06;;;;;;;6.65;1.70;;;;;;;;;;6245227;23;20203;-90
2023/06/27 10:12:14;;;;;;;8.15;1.60;;;;;;;;;;6242662;22;20162;-91
2023/06/27 10:15:19;;;;;;;7.43;1.67;;;;;;;;;;6242323;22;20181;-91
2023/06/27 10:18:25;;;;;;;4.50;1.65;;;;;;;;;;6242238;23;20149;-92
2023/06/27 10:21:31;;;;;;;5.03;1.67;;;;;;;;;;6243108;23;20686;-88
2023/06/27 10:24:36;;;;;;;6.97;1.50;;;;;;;;;;6242703;22;20166;-93
2023/06/27 10:27:42;;;;;;;7.80;1.30;;;;;;;;;;6242732;22;20150;-90
2023/06/27 10:30:48;;;;;;;5.10;1.75;;;;;;;;;;6240950;22;20221;-92
2023/06/27 10:33:54;;;;;;;6.35;1.50;;;;;;;;;;6242960;22;20225;-91
2023/06/27 10:37:03;;;;;;;6.55;1.40;;;;;;;;;;6242974;22;20618;-91
2023/06/27 10:40:09;;;;;;;4.28;1.48;;;;;;;;;;6241668;22;20163;-91
2023/06/27 10:43:35;;;;;;;3.30;1.35;;;;;;;;;;6243025;23;20153;-90
2023/06/27 10:46:41;;;;;;;9.18;1.55;;;;;;;;;;6244281;23;20167;-90
2023/06/27 10:49:48;;;;;;;7.82;1.65;;;;;;;;;;6242259;23;20166;-90
2023/06/27 10:53:01;;;;;;;4.50;1.50;;;;;;;;;;6242640;23;20548;-89
2023/06/27 10:56:17;;;;;;;9.50;2.08;;;;;;;;;;6242064;23;20617;-91
2023/06/27 10:59:23;;;;;;;7.90;1.55;;;;;;;;;;6241262;23;20163;-90
2023/06/27 11:02:34;;;;;;;6.53;1.60;;;;;;;;;;6241605;22;20191;-92
2023/06/27 11:05:41;;;;;;;7.45;1.55;;;;;;;;;;6243056;23;20151;-93
2023/06/27 11:08:56;;;;;;;4.70;1.63;;;;;;;;;;6240572;23;20171;-91
2023/06/27 11:12:30;;;;;;;2.95;1.25;;;;;;;;;;6242295;23;20167;-90
2023/06/27 11:16:16;;;;;;;2.50;1.20;;;;;;;;;;6242310;23;20178;-90
2023/06/27 11:19:26;;;;;;;12.70;1.88;;;;;;;;;;6243586;23;20181;-90
2023/06/27 11:22:33;;;;;;;9.35;2.17;;;;;;;;;;6242236;23;20167;-92
2023/06/27 11:25:42;;;;;;;8.10;1.40;;;;;;;;;;6240711;23;20171;-88
2023/06/27 11:28:47;;;;;;;4.63;1.60;;;;;;;;;;6242774;23;20158;-92
2023/06/27 11:31:52;;;;;;;4.85;1.40;;;;;;;;;;6244519;22;20169;-88
2023/06/27 11:34:58;;;;;;;6.93;1.70;;;;;;;;;;6244076;23;20247;-90
2023/06/27 11:38:06;;;;;;;5.95;1.30;;;;;;;;;;6243907;23;20609;-89
2023/06/27 11:41:12;;;;;;;6.32;1.38;;;;;;;;;;6241535;23;20170;-90
2023/06/27 11:44:18;;;;;;;5.50;0.90;;;;;;;;;;6241978;23;20154;-88
2023/06/27 11:47:23;;;;;;;4.38;1.25;;;;;;;;;;6244875;23;20166;-91
2023/06/27 11:50:28;;;;;;;4.28;1.20;;;;;;;;;;6243850;23;20213;-90
2023/06/27 11:53:35;;;;;;;3.75;1.25;;;;;;;;;;6245364;23;20190;-90
2023/06/27 11:56:40;;;;;;;6.03;1.52;;;;;;;;;;6242958;23;20213;-90
2023/06/27 11:59:46;;;;;;;3.47;1.50;;;;;;;;;;6244046;22;20158;-90
2023/06/27 12:02:53;;;;;;;5.32;1.60;;;;;;;;;;6245290;23;20166;-89
2023/06/27 12:05:59;;;;;;;5.47;1.70;;;;;;;;;;6245913;23;20170;-90
2023/06/27 12:09:12;;;;;;;4.60;1.20;;;;;;;;;;6244243;23;20228;-92
2023/06/27 12:12:17;;;;;;;2.50;1.30;;;;;;;;;;6244301;23;20161;-90
2023/06/27 12:15:22;;;;;;;4.88;1.50;;;;;;;;;;6244171;22;20225;-92
2023/06/27 12:18:31;;;;;;;3.83;1.20;;;;;;;;;;6242528;22;20166;-90
2023/06/27 12:21:37;;;;;;;4.38;1.50;;;;;;;;;;6243514;23;20150;-91
2023/06/27 12:24:44;;;;;;;5.35;1.17;;;;;;;;;;6245152;23;20161;-91
2023/06/27 12:27:49;;;;;;;2.72;1.20;;;;;;;;;;6246188;22;20613;-92
2023/06/27 12:31:02;;;;;;;2.05;1.30;;;;;;;;;;6245465;22;20167;-92
2023/06/27 12:34:07;;;;;;;2.47;1.15;;;;;;;;;;6246000;22;20219;-89
2023/06/27 12:37:12;;;;;;;5.20;1.30;;;;;;;;;;6248927;23;20169;-90
2023/06/27 12:40:22;;;;;;;3.33;1.20;;;;;;;;;;6246300;23;20170;-91
2023/06/27 12:43:28;;;;;;;8.57;2.38;;;;;;;;;;6244706;22;20170;-92
2023/06/27 12:46:39;;;;;;;4.80;1.48;;;;;;;;;;6247096;22;20154;-91
2023/06/27 12:49:45;;;;;;;5.20;1.23;;;;;;;;;;6246161;23;20669;-89
2023/06/27 12:52:50;;;;;;;2.92;1.27;;;;;;;;;;6243294;23;20227;-92
2023/06/27 12:55:58;;;;;;;5.00;1.20;;;;;;;;;;6244240;22;20186;-89
2023/06/27 12:59:04;;;;;;;3.40;1.20;;;;;;;;;;6244300;22;20165;-91
2023/06/27 13:02:23;;;;;;;2.05;1.00;;;;;;;;;;6245073;22;20147;-90
2023/06/27 13:05:32;;;;;;;4.80;1.45;;;;;;;;;;6247923;23;20174;-92
2023/06/27 13:08:38;;;;;;;6.20;1.08;;;;;;;;;;6246803;23;20210;-90
2023/06/27 13:11:45;;;;;;;2.45;1.42;;;;;;;;;;6246367;22;20150;-89
2023/06/27 13:14:51;;;;;;;4.60;1.10;;;;;;;;;;6246830;22;20193;-92
2023/06/27 13:17:56;;;;;;;2.22;1.42;;;;;;;;;;6246748;23;20166;-90
2023/06/27 13:24:56;;;;;;;3.75;1.08;;;;;;;;;;6243923;22;20202;-90
2023/06/27 13:28:02;;;;;;;2.72;1.10;;;;;;;;;;6244669;22;20203;-90
2023/06/27 13:31:08;;;;;;;3.47;1.02;;;;;;;;;;6245776;23;20215;-90
2023/06/27 13:34:16;;;;;;;5.47;1.33;;;;;;;;;;6246394;23;20171;-91
2023/06/27 13:37:21;;;;;;;3.42;1.40;;;;;;;;;;6248756;23;20186;-90
2023/06/27 13:40:28;;;;;;;3.67;1.17;;;;;;;;;;6245738;22;20159;-90
2023/06/27 13:43:35;;;;;;;5.22;1.30;;;;;;;;;;6246746;23;20174;-91
2023/06/27 13:46:41;;;;;;;6.53;1.50;;;;;;;;;;6246481;22;20197;-91
2023/06/27 13:49:46;;;;;;;6.13;1.33;;;;;;;;;;6245689;23;20215;-90
2023/06/27 13:52:51;;;;;;;3.55;1.10;;;;;;;;;;6246509;22;20194;-91
2023/06/27 13:55:57;;;;;;;4.40;1.40;;;;;;;;;;6246151;23;20246;-87
2023/06/27 13:59:06;;;;;;;3.00;1.30;;;;;;;;;;6242811;22;20163;-90
2023/06/27 14:02:12;;;;;;;5.35;1.40;;;;;;;;;;6249439;22;20178;-90
2023/06/27 14:05:41;;;;;;;10.05;1.55;;;;;;;;;;6266029;22;20186;-89
2023/06/27 14:08:49;;;;;;;8.30;1.48;;;;;;;;;;6246358;22;20598;-89
2023/06/27 14:15:27;;;;;;;4.25;1.52;;;;;;;;;;6245948;22;20654;-90
2023/06/27 14:18:38;;;;;;;3.88;1.30;;;;;;;;;;6245858;22;20158;-92
2023/06/27 14:21:44;;;;;;;3.75;1.27;;;;;;;;;;6247345;23;20155;-89
2023/06/27 14:24:50;;;;;;;3.80;1.40;;;;;;;;;;6246075;23;20174;-91
2023/06/27 14:27:56;;;;;;;4.70;1.67;;;;;;;;;;6244204;22;20154;-89
2023/06/27 14:31:04;;;;;;;8.30;1.30;;;;;;;;;;6242641;22;20169;-91
2023/06/27 14:34:09;;;;;;;3.67;1.20;;;;;;;;;;6244956;22;20499;-90
2023/06/27 14:37:15;;;;;;;3.97;1.20;;;;;;;;;;6245039;23;20216;-90
2023/06/27 14:40:23;;;;;;;5.93;1.35;;;;;;;;;;6245267;23;20519;-90
2023/06/27 14:43:29;;;;;;;3.88;1.30;;;;;;;;;;6245145;22;20208;-92
2023/06/27 14:46:46;;;;;;;4.05;1.23;;;;;;;;;;6246275;22;20190;-90
2023/06/27 14:49:51;;;;;;;2.83;1.20;;;;;;;;;;6242638;23;20166;-92
2023/06/27 14:52:56;;;;;;;3.90;1.40;;;;;;;;;;6244310;23;20166;-91
2023/06/27 14:56:01;;;;;;;1.98;1.10;;;;;;;;;;6243186;23;20210;-91
2023/06/27 14:59:12;;;;;;;2.92;1.40;;;;;;;;;;6243534;23;20154;-91
2023/06/27 15:02:19;;;;;;;3.70;1.20;;;;;;;;;;6243825;22;20146;-91
2023/06/27 15:05:43;;;;;;;3.33;1.40;;;;;;;;;;6243151;23;20165;-91
2023/06/27 15:08:48;;;;;;;2.78;1.30;;;;;;;;;;6243884;23;20206;-89
2023/06/27 15:11:54;;;;;;;2.55;1.23;;;;;;;;;;6243186;23;20158;-92
2023/06/27 15:15:00;;;;;;;8.43;1.40;;;;;;;;;;6241066;22;20197;-90
2023/06/27 15:18:07;;;;;;;4.60;1.35;;;;;;;;;;6243583;23;20237;-91
2023/06/27 15:21:12;;;;;;;3.10;1.45;;;;;;;;;;6242834;23;20218;-91
2023/06/27 15:24:18;;;;;;;5.70;1.60;;;;;;;;;;6242222;23;20161;-92
2023/06/27 15:27:25;;;;;;;4.35;1.42;;;;;;;;;;6240634;23;20209;-90
2023/06/27 15:30:30;;;;;;;7.07;1.40;;;;;;;;;;6242399;22;20159;-91
2023/06/27 15:33:36;;;;;;;3.30;1.80;;;;;;;;;;6240318;22;20191;-89
2023/06/27 15:36:42;;;;;;;3.20;1.30;;;;;;;;;;6241100;23;20218;-92
2023/06/27 15:40:19;;;;;;;4.63;1.48;;;;;;;;;;6242072;23;20162;-89
2023/06/27 15:43:25;;;;;;;4.10;1.25;;;;;;;;;;6240041;22;20162;-89
2023/06/27 15:46:30;;;;;;;2.80;1.30;;;;;;;;;;6240087;23;20166;-91
2023/06/27 15:49:36;;;;;;;5.40;1.40;;;;;;;;;;6240848;23;20186;-92
2023/06/27 15:56:06;;;;;;;5.05;1.20;;;;;;;;;;6247606;22;20247;-91
2023/06/27 15:59:11;;;;;;;2.38;1.10;;;;;;;;;;6241793;22;20154;-90
2023/06/27 16:02:17;;;;;;;7.60;1.38;;;;;;;;;;6242868;22;20278;-89
2023/06/27 16:05:24;;;;;;;2.17;1.25;;;;;;;;;;6243596;23;20217;-91
2023/06/27 16:08:30;;;;;;;4.47;1.60;;;;;;;;;;6244352;23;20159;-89
2023/06/27 16:11:35;;;;;;;5.15;1.35;;;;;;;;;;6242181;22;20178;-92
2023/06/27 16:14:40;;;;;;;5.13;2.35;;;;;;;;;;6242066;22;20183;-90
2023/06/27 16:17:48;;;;;;;9.27;1.60;;;;;;;;;;6242193;22;20166;-92
2023/06/27 16:20:54;;;;;;;4.95;1.50;;;;;;;;;;6242385;23;20217;-92
2023/06/27 16:24:00;;;;;;;5.90;1.30;;;;;;;;;;6242063;22;20157;-89
2023/06/27 16:27:05;;;;;;;3.90;1.65;;;;;;;;;;6243074;22;20253;-90
2023/06/27 16:30:11;;;;;;;6.70;2.13;;;;;;;;;;6243364;22;20622;-91
2023/06/27 16:33:18;;;;;;;5.15;1.42;;;;;;;;;;6243424;22;20673;-90
2023/06/27 16:36:25;;;;;;;6.05;1.55;;;;;;;;;;6244145;23;20210;-91
2023/06/27 16:39:31;;;;;;;3.00;1.33;;;;;;;;;;6242702;23;20163;-89
2023/06/27 16:42:38;;;;;;;4.00;1.65;;;;;;;;;;6242524;22;20206;-90
2023/06/27 16:45:51;;;;;;;4.78;1.63;;;;;;;;;;6243100;22;20244;-91
2023/06/27 16:48:56;;;;;;;5.18;1.40;;;;;;;;;;6242323;22;20201;-90
2023/06/27 16:52:06;;;;;;;4.30;1.55;;;;;;;;;;6241736;23;20170;-88
2023/06/27 16:55:11;;;;;;;3.67;1.50;;;;;;;;;;6242509;23;20167;-90
2023/06/27 16:58:17;;;;;;;3.92;1.80;;;;;;;;;;6241264;22;20238;-90
2023/06/27 17:01:28;;;;;;;3.95;1.38;;;;;;;;;;6242646;23;20234;-91
2023/06/27 17:04:35;;;;;;;4.85;1.70;;;;;;;;;;6244184;22;20238;-90
2023/06/27 17:07:42;;;;;;;4.45;1.55;;;;;;;;;;6239905;23;20171;-89
2023/06/27 17:10:47;;;;;;;5.13;1.40;;;;;;;;;;6241160;23;20194;-90
2023/06/27 17:13:52;;;;;;;7.15;1.60;;;;;;;;;;6241908;22;20610;-89
2023/06/27 17:16:58;;;;;;;5.10;1.83;;;;;;;;;;6240117;22;20245;-90
2023/06/27 17:20:22;;;;;;;4.22;1.33;;;;;;;;;;6240006;22;20170;-90
2023/06/27 17:23:29;;;;;;;4.22;1.30;;;;;;;;;;6241480;22;20283;-88
2023/06/27 17:26:37;;;;;;;2.60;1.27;;;;;;;;;;6240435;22;20213;-89
2023/06/27 17:29:42;;;;;;;5.05;1.85;;;;;;;;;;6239186;23;20186;-88
2023/06/27 17:32:47;;;;;;;7.53;2.10;;;;;;;;;;6241368;23;20242;-90
2023/06/27 17:35:54;;;;;;;8.00;1.85;;;;;;;;;;6241871;23;20198;-91
2023/06/27 17:39:01;;;;;;;6.93;1.52;;;;;;;;;;6240824;22;20155;-91
2023/06/27 17:42:07;;;;;;;3.40;1.50;;;;;;;;;;6242683;23;20167;-90
2023/06/27 17:45:12;;;;;;;3.80;1.42;;;;;;;;;;6241239;23;20173;-88
2023/06/27 17:48:18;;;;;;;5.72;1.40;;;;;;;;;;6240653;22;20190;-91
2023/06/27 17:51:23;;;;;;;5.05;1.90;;;;;;;;;;6240354;22;20162;-89
2023/06/27 17:54:30;;;;;;;5.40;1.90;;;;;;;;;;6240166;23;20167;-91
2023/06/27 17:57:44;;;;;;;3.42;1.30;;;;;;;;;;6239610;23;20178;-90
2023/06/27 18:00:49;;;;;;;3.65;1.33;;;;;;;;;;6238931;23;20253;-90
2023/06/27 18:03:55;;;;;;;4.57;1.52;;;;;;;;;;6241220;23;20166;-90
2023/06/27 18:07:00;;;;;;;2.85;1.40;;;;;;;;;;6240906;22;20171;-90
2023/06/27 18:10:08;;;;;;;7.72;1.70;;;;;;;;;;6242496;23;20170;-91
2023/06/27 18:13:13;;;;;;;4.70;1.77;;;;;;;;;;6243929;23;20209;-91
2023/06/27 18:16:18;;;;;;;6.55;1.92;;;;;;;;;;6242325;23;20206;-90
2023/06/27 18:19:50;;;;;;;9.98;2.05;;;;;;;;;;6243121;23;20697;-90
2023/06/27 18:22:56;;;;;;;4.10;1.50;;;;;;;;;;6243805;22;20664;-90
2023/06/27 18:26:04;;;;;;;3.10;1.50;;;;;;;;;;6242581;22;20664;-91
2023/06/27 18:29:09;;;;;;;5.55;1.98;;;;;;;;;;6243102;23;20162;-90
2023/06/27 18:32:14;;;;;;;4.45;1.40;;;;;;;;;;6241332;23;20159;-91
2023/06/27 18:35:19;;;;;;;7.75;1.70;;;;;;;;;;6241532;23;20155;-90
2023/06/27 18:38:27;;;;;;;7.10;2.28;;;;;;;;;;6243080;22;20227;-92
2023/06/27 18:41:33;;;;;;;3.53;1.73;;;;;;;;;;6243344;22;20609;-90
2023/06/27 18:44:39;;;;;;;4.78;1.63;;;;;;;;;;6243441;23;20238;-91
2023/06/27 18:47:45;;;;;;;7.03;1.58;;;;;;;;;;6244128;23;20261;-91
2023/06/27 18:51:12;;;;;;;4.53;1.65;;;;;;;;;;6243349;22;20215;-88
2023/06/27 19:06:00;;;;;;;3.50;1.80;;;;;;;;;;6242430;23;20277;-91